Time;durP1;ratioP1;P1;durP2;ratioP2;P2;SDS_P1;SDS_P2;PMS_P1;PMS_P2;Temp;Humidity;BMP_temperature;BMP_pressure;BME280_temperature;BME280_humidity;BME280_pressure;Samples;Min_cycle;Max_cycle;Signal;HPM_P1;HPM_P2
2021/08/08 00:01:26;;;;;;;9.35;2.47;;;26.60;99.90;;;;;;4881305;29;20088;-78
2021/08/08 00:03:53;;;;;;;16.85;2.17;;;26.60;99.90;;;;;;4881169;29;20048;-79
2021/08/08 00:06:19;;;;;;;7.72;2.60;;;26.60;99.90;;;;;;4881365;29;20044;-78
2021/08/08 00:08:45;;;;;;;12.10;3.20;;;26.50;99.90;;;;;;4881201;29;20041;-78
2021/08/08 00:11:10;;;;;;;5.30;2.13;;;26.50;99.90;;;;;;4881284;29;20048;-79
2021/08/08 00:13:36;;;;;;;16.42;3.30;;;26.50;99.90;;;;;;4881343;29;20366;-79
2021/08/08 00:16:02;;;;;;;10.90;2.97;;;26.40;99.90;;;;;;4881054;29;20037;-79
2021/08/08 00:18:28;;;;;;;9.30;2.70;;;26.40;99.90;;;;;;4881242;29;20431;-78
2021/08/08 00:20:54;;;;;;;9.27;2.25;;;26.40;99.90;;;;;;4881045;29;20150;-79
2021/08/08 00:23:19;;;;;;;12.65;2.70;;;26.30;99.90;;;;;;4880981;29;20112;-79
2021/08/08 00:25:45;;;;;;;9.88;3.88;;;26.30;99.90;;;;;;4881034;29;20025;-79
2021/08/08 00:28:11;;;;;;;12.18;3.08;;;26.30;99.90;;;;;;4880862;29;20044;-78
2021/08/08 00:30:37;;;;;;;11.73;2.45;;;26.30;99.90;;;;;;4880987;29;20041;-80
2021/08/08 00:33:03;;;;;;;11.55;2.53;;;26.30;99.90;;;;;;4881003;29;20470;-79
2021/08/08 00:35:28;;;;;;;4.93;2.15;;;26.30;99.90;;;;;;4880808;29;20390;-79
2021/08/08 00:37:54;;;;;;;12.38;2.47;;;26.30;99.90;;;;;;4880604;29;20037;-78
2021/08/08 00:40:20;;;;;;;12.40;2.95;;;26.20;99.90;;;;;;4880491;29;20044;-79
2021/08/08 00:42:46;;;;;;;8.57;2.65;;;26.30;99.90;;;;;;4879767;29;20029;-78
2021/08/08 00:45:14;;;;;;;16.63;3.10;;;26.20;99.90;;;;;;4880396;29;20037;-79
2021/08/08 00:47:40;;;;;;;24.80;3.28;;;26.20;99.90;;;;;;4880751;29;20045;-79
2021/08/08 00:50:06;;;;;;;16.42;2.50;;;26.20;99.90;;;;;;4880474;29;20131;-80
2021/08/08 00:52:33;;;;;;;11.90;3.83;;;26.20;99.90;;;;;;4879876;29;20089;-79
2021/08/08 00:55:00;;;;;;;12.60;2.88;;;26.10;99.90;;;;;;4880431;29;20057;-79
2021/08/08 00:57:26;;;;;;;8.90;2.42;;;26.20;99.90;;;;;;4880328;29;20037;-78
2021/08/08 00:59:52;;;;;;;11.63;2.55;;;26.20;99.90;;;;;;4880099;29;20475;-79
2021/08/08 01:02:21;;;;;;;11.60;2.97;;;26.20;99.90;;;;;;4880054;29;20408;-78
2021/08/08 01:05:03;;;;;;;7.35;2.33;;;26.20;99.90;;;;;;4880161;29;20597;-79
2021/08/08 01:07:34;;;;;;;14.82;2.63;;;26.20;99.90;;;;;;4880147;29;20041;-78
2021/08/08 01:10:03;;;;;;;9.10;2.63;;;26.20;99.90;;;;;;4880009;29;20058;-78
2021/08/08 01:12:30;;;;;;;13.45;3.28;;;26.20;99.90;;;;;;4881303;29;20049;-78
2021/08/08 01:14:58;;;;;;;18.05;3.72;;;26.20;99.90;;;;;;4880310;29;20041;-79
2021/08/08 01:17:24;;;;;;;14.38;3.10;;;26.20;99.90;;;;;;4880065;29;20064;-79
2021/08/08 01:19:58;;;;;;;17.20;3.10;;;26.20;99.90;;;;;;4880152;29;20101;-80
2021/08/08 01:22:29;;;;;;;19.27;3.30;;;26.10;99.90;;;;;;4880049;29;20040;-78
2021/08/08 01:24:56;;;;;;;11.77;2.53;;;26.10;99.90;;;;;;4880033;29;20041;-78
2021/08/08 01:27:23;;;;;;;11.57;2.70;;;26.10;99.90;;;;;;4880023;29;20100;-78
2021/08/08 01:29:48;;;;;;;12.35;3.08;;;26.10;99.90;;;;;;4880279;29;20037;-79
2021/08/08 01:32:14;;;;;;;11.98;2.85;;;26.10;99.90;;;;;;4879880;29;20071;-79
2021/08/08 01:34:40;;;;;;;14.93;3.40;;;26.00;99.90;;;;;;4880142;29;20124;-79
2021/08/08 01:37:05;;;;;;;10.23;3.25;;;26.10;99.90;;;;;;4879839;29;20025;-80
2021/08/08 01:39:34;;;;;;;13.23;3.00;;;26.00;99.90;;;;;;4879684;29;20040;-78
2021/08/08 01:42:04;;;;;;;10.48;3.40;;;26.00;99.90;;;;;;4879720;29;20037;-78
2021/08/08 01:44:35;;;;;;;17.42;3.13;;;26.00;99.90;;;;;;4880094;29;20071;-79
2021/08/08 01:47:02;;;;;;;13.50;2.72;;;26.00;99.90;;;;;;4879895;29;20021;-78
2021/08/08 01:49:32;;;;;;;15.82;2.83;;;26.00;99.90;;;;;;4879566;29;20033;-78
2021/08/08 01:51:58;;;;;;;30.73;4.22;;;26.00;99.90;;;;;;4893756;29;20124;-79
2021/08/08 01:54:24;;;;;;;12.40;3.10;;;26.00;99.90;;;;;;4879469;29;20124;-78
2021/08/08 01:56:51;;;;;;;15.85;2.78;;;26.00;99.90;;;;;;4879609;29;20446;-79
2021/08/08 01:59:18;;;;;;;8.27;3.13;;;25.90;99.90;;;;;;4879877;29;20051;-79
2021/08/08 02:01:44;;;;;;;16.83;3.50;;;25.90;99.90;;;;;;4879422;29;20045;-79
2021/08/08 02:04:15;;;;;;;10.93;2.88;;;25.90;99.90;;;;;;4879461;29;20112;-79
2021/08/08 02:06:41;;;;;;;15.43;2.75;;;25.90;99.90;;;;;;4879408;29;20044;-79
2021/08/08 02:09:07;;;;;;;11.30;2.88;;;25.90;99.90;;;;;;4879608;29;20393;-78
2021/08/08 02:11:33;;;;;;;13.70;3.25;;;25.90;99.90;;;;;;4879506;29;20029;-79
2021/08/08 02:13:59;;;;;;;10.02;3.15;;;25.90;99.90;;;;;;4879607;29;20056;-78
2021/08/08 02:16:24;;;;;;;10.52;2.65;;;25.80;99.90;;;;;;4879782;29;20433;-78
2021/08/08 02:18:50;;;;;;;10.82;3.03;;;25.90;99.90;;;;;;4879763;29;20060;-79
2021/08/08 02:21:16;;;;;;;8.20;3.00;;;25.80;99.90;;;;;;4879453;29;20033;-79
2021/08/08 02:23:41;;;;;;;12.80;3.72;;;25.80;99.90;;;;;;4879463;29;20101;-79
2021/08/08 02:26:07;;;;;;;13.75;3.28;;;25.80;99.90;;;;;;4879787;29;20068;-79
2021/08/08 02:28:33;;;;;;;18.40;4.03;;;25.80;99.90;;;;;;4879522;29;20037;-78
2021/08/08 02:30:58;;;;;;;16.60;3.72;;;25.70;99.90;;;;;;4879542;29;20035;-79
2021/08/08 02:33:24;;;;;;;12.52;3.20;;;25.70;99.90;;;;;;4879380;29;20478;-78
2021/08/08 02:35:50;;;;;;;11.63;3.20;;;25.70;99.90;;;;;;4879368;29;20076;-79
2021/08/08 02:38:18;;;;;;;17.48;4.00;;;25.70;99.90;;;;;;4879452;29;20128;-78
2021/08/08 02:40:44;;;;;;;14.35;2.75;;;25.70;99.90;;;;;;4879254;29;20419;-78
2021/08/08 02:43:10;;;;;;;13.20;3.35;;;25.70;99.90;;;;;;4879081;29;20041;-79
2021/08/08 02:45:35;;;;;;;18.27;3.33;;;25.60;99.90;;;;;;4879154;29;20056;-79
2021/08/08 02:48:01;;;;;;;18.02;3.50;;;25.60;99.90;;;;;;4879406;29;20478;-79
2021/08/08 02:50:27;;;;;;;15.07;3.72;;;25.60;99.90;;;;;;4879107;29;20040;-79
2021/08/08 02:52:53;;;;;;;16.00;3.30;;;25.60;99.90;;;;;;4879707;29;20037;-78
2021/08/08 02:55:20;;;;;;;24.02;4.43;;;25.60;99.90;;;;;;4879005;29;20100;-79
2021/08/08 02:57:46;;;;;;;21.67;4.38;;;25.60;99.90;;;;;;4878988;29;20501;-79
2021/08/08 03:00:13;;;;;;;13.48;3.20;;;25.60;99.90;;;;;;4879783;29;20057;-75
2021/08/08 03:02:38;;;;;;;18.25;3.28;;;25.60;99.90;;;;;;4878843;29;20049;-75
2021/08/08 03:05:04;;;;;;;15.52;3.75;;;25.50;99.90;;;;;;4879079;29;20067;-75
2021/08/08 03:07:30;;;;;;;12.45;2.97;;;25.50;99.90;;;;;;4882875;29;20052;-74
2021/08/08 03:09:56;;;;;;;20.60;3.08;;;25.60;99.90;;;;;;4882294;29;20463;-75
2021/08/08 03:12:22;;;;;;;22.23;3.67;;;25.50;99.90;;;;;;4882803;29;20065;-75
2021/08/08 03:14:47;;;;;;;21.42;3.30;;;25.60;99.90;;;;;;4882210;29;20486;-75
2021/08/08 03:17:13;;;;;;;10.68;3.30;;;25.50;99.90;;;;;;4882183;29;20119;-75
2021/08/08 03:19:39;;;;;;;14.05;3.42;;;25.50;99.90;;;;;;4882697;29;20119;-76
2021/08/08 03:22:05;;;;;;;13.57;3.72;;;25.50;99.90;;;;;;4882070;29;20114;-76
2021/08/08 03:24:31;;;;;;;16.13;2.90;;;25.50;99.90;;;;;;4881811;29;20048;-74
2021/08/08 03:26:57;;;;;;;14.85;3.00;;;25.50;99.90;;;;;;4882337;29;20028;-76
2021/08/08 03:29:23;;;;;;;20.85;3.60;;;25.60;99.90;;;;;;4882174;29;20124;-75
2021/08/08 03:31:48;;;;;;;11.98;3.03;;;25.50;99.90;;;;;;4882309;29;20029;-75
2021/08/08 03:34:14;;;;;;;17.05;3.45;;;25.60;99.90;;;;;;4881844;29;20509;-75
2021/08/08 03:36:40;;;;;;;9.82;2.88;;;25.50;99.90;;;;;;4881969;29;20041;-74
2021/08/08 03:39:05;;;;;;;8.68;2.75;;;25.50;99.90;;;;;;4880508;29;20386;-76
2021/08/08 03:41:31;;;;;;;10.75;3.22;;;25.50;99.90;;;;;;4880483;29;20059;-75
2021/08/08 03:43:57;;;;;;;13.57;2.80;;;25.60;99.90;;;;;;4882033;29;20048;-75
2021/08/08 03:46:22;;;;;;;8.18;2.58;;;25.60;99.90;;;;;;4881788;29;20029;-76
2021/08/08 03:48:48;;;;;;;12.45;2.95;;;25.60;99.90;;;;;;4881748;29;20045;-76
2021/08/08 03:51:14;;;;;;;15.68;2.95;;;25.60;99.90;;;;;;4881501;29;20060;-76
2021/08/08 03:53:39;;;;;;;10.90;2.88;;;25.60;99.90;;;;;;4881833;29;20037;-78
2021/08/08 03:56:05;;;;;;;27.20;2.92;;;25.60;99.90;;;;;;4881631;29;20043;-75
2021/08/08 03:58:31;;;;;;;12.23;2.88;;;25.60;99.90;;;;;;4881547;29;20541;-76
2021/08/08 04:00:59;;;;;;;11.93;2.78;;;25.60;99.90;;;;;;4881653;29;20063;-76
2021/08/08 04:03:24;;;;;;;17.55;3.15;;;25.60;99.90;;;;;;4881106;29;20049;-75
2021/08/08 04:05:50;;;;;;;17.35;3.17;;;25.60;99.90;;;;;;4881145;29;20089;-75
2021/08/08 04:08:16;;;;;;;11.88;2.70;;;25.60;99.90;;;;;;4881378;29;20104;-75
2021/08/08 04:10:41;;;;;;;16.08;3.03;;;25.60;99.90;;;;;;4881554;29;20037;-76
2021/08/08 04:13:07;;;;;;;11.98;2.92;;;25.60;99.90;;;;;;4881448;29;20044;-77
2021/08/08 04:15:33;;;;;;;15.93;3.22;;;25.60;99.90;;;;;;4881303;29;20037;-77
2021/08/08 04:17:58;;;;;;;14.85;3.28;;;25.60;99.90;;;;;;4880652;29;20108;-76
2021/08/08 04:20:24;;;;;;;13.90;3.13;;;25.70;99.90;;;;;;4881170;29;20414;-76
2021/08/08 04:22:49;;;;;;;12.18;2.95;;;25.60;99.90;;;;;;4881117;29;20029;-76
2021/08/08 04:25:15;;;;;;;18.20;3.22;;;25.70;99.90;;;;;;4881183;29;20538;-75
2021/08/08 04:27:41;;;;;;;11.52;2.90;;;25.60;99.90;;;;;;4880765;29;20060;-77
2021/08/08 04:30:07;;;;;;;20.20;3.05;;;25.70;99.90;;;;;;4880969;29;20040;-76
2021/08/08 04:32:32;;;;;;;11.32;3.05;;;25.70;99.90;;;;;;4880863;29;20033;-75
2021/08/08 04:34:58;;;;;;;12.00;3.38;;;25.60;99.90;;;;;;4880890;29;20036;-75
2021/08/08 04:37:24;;;;;;;13.27;2.72;;;25.70;99.90;;;;;;4880841;29;20467;-76
2021/08/08 04:39:50;;;;;;;9.35;2.47;;;25.70;99.90;;;;;;4880784;29;20172;-75
2021/08/08 04:42:16;;;;;;;11.48;3.22;;;25.70;99.90;;;;;;4880577;29;20390;-76
2021/08/08 04:44:42;;;;;;;15.57;3.03;;;25.80;99.90;;;;;;4880422;29;20049;-79
2021/08/08 04:47:07;;;;;;;12.95;2.97;;;25.80;99.90;;;;;;4880469;29;20455;-79
2021/08/08 04:49:33;;;;;;;10.85;3.00;;;25.80;99.90;;;;;;4880461;29;20049;-79
2021/08/08 04:52:02;;;;;;;9.05;2.80;;;25.90;99.90;;;;;;4880760;29;20029;-75
2021/08/08 04:54:27;;;;;;;13.15;3.05;;;25.90;99.90;;;;;;4880758;29;20112;-79
2021/08/08 04:56:53;;;;;;;12.18;2.67;;;25.90;99.90;;;;;;4880632;29;20104;-76
2021/08/08 04:59:19;;;;;;;10.90;2.60;;;26.10;99.90;;;;;;4880516;29;20413;-76
2021/08/08 05:01:44;;;;;;;11.20;2.88;;;26.20;99.90;;;;;;4880256;29;20435;-75
2021/08/08 05:04:11;;;;;;;16.38;3.05;;;26.50;99.90;;;;;;4880497;29;20053;-74
2021/08/08 05:06:36;;;;;;;7.30;2.83;;;26.70;99.90;;;;;;4880364;29;20029;-76
2021/08/08 05:09:04;;;;;;;16.30;2.60;;;26.90;99.90;;;;;;4880543;29;20534;-74
2021/08/08 05:11:30;;;;;;;10.18;2.53;;;27.20;99.90;;;;;;4880347;29;20062;-79
2021/08/08 05:13:56;;;;;;;7.40;2.60;;;27.30;99.90;;;;;;4879939;29;20033;-77
2021/08/08 05:16:21;;;;;;;20.13;2.80;;;27.40;99.90;;;;;;4880417;29;20052;-79
2021/08/08 05:18:47;;;;;;;9.65;3.30;;;27.60;99.90;;;;;;4880230;29;20112;-77
2021/08/08 05:21:12;;;;;;;7.40;3.60;;;27.80;99.90;;;;;;4880019;29;20492;-76
2021/08/08 05:23:38;;;;;;;19.63;4.03;;;28.40;99.90;;;;;;4880032;29;20120;-80
2021/08/08 05:26:04;;;;;;;12.00;2.70;;;29.50;99.90;;;;;;4880044;29;20033;-77
2021/08/08 05:28:31;;;;;;;11.93;2.45;;;30.60;99.90;;;;;;4879363;29;20573;-79
2021/08/08 05:30:56;;;;;;;8.77;2.92;;;31.80;99.90;;;;;;4879917;29;20125;-76
2021/08/08 05:33:22;;;;;;;7.78;2.78;;;32.40;99.90;;;;;;4879899;29;20116;-76
2021/08/08 05:35:51;;;;;;;9.65;2.78;;;33.10;99.90;;;;;;4879934;29;20065;-79
2021/08/08 05:38:17;;;;;;;6.70;2.13;;;33.20;99.90;;;;;;4880033;29;20052;-77
2021/08/08 05:40:42;;;;;;;12.40;2.83;;;33.00;99.90;;;;;;4879905;29;20037;-79
2021/08/08 05:43:08;;;;;;;11.23;2.50;;;33.30;99.90;;;;;;4879499;29;20025;-79
2021/08/08 05:45:33;;;;;;;8.32;2.97;;;33.80;99.90;;;;;;4879985;29;20497;-78
2021/08/08 05:47:59;;;;;;;12.57;2.65;;;33.90;99.90;;;;;;4879614;29;20084;-76
2021/08/08 05:50:25;;;;;;;12.30;3.38;;;34.30;99.90;;;;;;4879535;29;20056;-77
2021/08/08 05:52:52;;;;;;;18.00;3.17;;;35.20;99.90;;;;;;4879526;29;20041;-76
2021/08/08 05:55:19;;;;;;;8.02;2.40;;;35.20;99.90;;;;;;4879670;29;20064;-75
2021/08/08 05:57:44;;;;;;;9.73;2.50;;;34.80;99.90;;;;;;4878082;29;20550;-75
2021/08/08 06:00:11;;;;;;;7.35;2.53;;;35.20;99.90;;;;;;4879971;29;20098;-76
2021/08/08 06:02:37;;;;;;;9.25;2.75;;;35.70;99.90;;;;;;4879372;29;20052;-79
2021/08/08 06:05:03;;;;;;;11.43;2.22;;;36.50;99.90;;;;;;4879350;29;20041;-75
2021/08/08 06:07:29;;;;;;;9.55;3.95;;;36.70;99.90;;;;;;4879509;29;20056;-76
2021/08/08 06:09:55;;;;;;;15.70;2.40;;;36.70;99.90;;;;;;4879477;29;20037;-76
2021/08/08 06:12:20;;;;;;;13.75;2.92;;;36.40;99.90;;;;;;4879293;29;20110;-77
2021/08/08 06:14:46;;;;;;;9.70;2.90;;;36.20;99.90;;;;;;4879370;29;20086;-75
2021/08/08 06:17:12;;;;;;;9.80;2.17;;;36.10;99.90;;;;;;4879290;29;20108;-77
2021/08/08 06:19:37;;;;;;;7.75;2.53;;;35.70;99.90;;;;;;4879446;29;20120;-83
2021/08/08 06:22:03;;;;;;;7.88;2.72;;;36.10;99.90;;;;;;4879360;29;20039;-83
2021/08/08 06:24:29;;;;;;;9.00;2.30;;;36.20;99.90;;;;;;4879620;29;20123;-82
2021/08/08 06:26:55;;;;;;;8.63;2.83;;;35.80;99.90;;;;;;4879701;29;20033;-80
2021/08/08 06:29:20;;;;;;;8.30;2.90;;;35.30;99.90;;;;;;4879384;29;20430;-82
2021/08/08 06:31:46;;;;;;;7.85;2.70;;;35.50;99.90;;;;;;4879569;29;20056;-82
2021/08/08 06:34:12;;;;;;;5.85;2.10;;;35.10;99.90;;;;;;4879901;29;20025;-83
2021/08/08 06:36:37;;;;;;;8.05;3.05;;;35.20;99.90;;;;;;4879625;29;20041;-85
2021/08/08 06:39:05;;;;;;;14.20;2.45;;;35.00;99.90;;;;;;4879014;29;20136;-86
2021/08/08 06:41:31;;;;;;;9.75;2.40;;;35.40;99.90;;;;;;4883033;29;20041;-84
2021/08/08 06:43:57;;;;;;;6.57;2.53;;;35.70;99.90;;;;;;4883244;29;20045;-84
2021/08/08 06:46:23;;;;;;;10.70;3.13;;;35.90;99.50;;;;;;4883410;29;20084;-84
2021/08/08 06:48:48;;;;;;;10.68;3.00;;;35.50;99.70;;;;;;4882922;29;20112;-84
2021/08/08 06:51:14;;;;;;;9.13;3.28;;;35.50;99.90;;;;;;4881339;29;20037;-77
2021/08/08 06:53:40;;;;;;;7.57;2.78;;;35.10;99.90;;;;;;4883296;29;20150;-77
2021/08/08 06:56:06;;;;;;;9.32;2.72;;;34.70;99.90;;;;;;4882626;29;20093;-75
2021/08/08 06:58:31;;;;;;;14.73;3.28;;;34.00;99.90;;;;;;4882513;29;20029;-77
2021/08/08 07:00:57;;;;;;;14.90;2.95;;;34.20;99.90;;;;;;4882641;29;20488;-79
2021/08/08 07:03:23;;;;;;;8.93;2.60;;;34.40;99.90;;;;;;4882135;29;20127;-79
2021/08/08 07:05:49;;;;;;;8.77;2.75;;;34.40;99.90;;;;;;4882238;29;20538;-76
2021/08/08 07:08:14;;;;;;;11.02;2.67;;;34.30;99.90;;;;;;4882366;29;20089;-78
2021/08/08 07:10:40;;;;;;;17.33;2.67;;;35.00;99.90;;;;;;4882343;29;20485;-78
2021/08/08 07:13:06;;;;;;;10.63;3.15;;;36.00;99.30;;;;;;4882270;29;20033;-76
2021/08/08 07:15:32;;;;;;;7.57;2.40;;;36.40;99.40;;;;;;4882289;29;20056;-76
2021/08/08 07:17:57;;;;;;;6.75;2.63;;;36.60;98.80;;;;;;4882350;29;20363;-76
2021/08/08 07:20:23;;;;;;;9.80;3.03;;;36.60;98.80;;;;;;4882258;29;20033;-77
2021/08/08 07:22:49;;;;;;;10.85;2.75;;;37.00;98.20;;;;;;4881915;29;20100;-78
2021/08/08 07:25:14;;;;;;;10.13;2.40;;;37.50;98.20;;;;;;4881867;29;20048;-78
2021/08/08 07:27:40;;;;;;;12.77;2.95;;;38.20;97.30;;;;;;4881846;29;20033;-76
2021/08/08 07:30:07;;;;;;;15.68;2.78;;;38.70;96.40;;;;;;4882144;29;20033;-77
2021/08/08 07:32:33;;;;;;;10.57;3.50;;;38.60;96.00;;;;;;4881708;29;20494;-77
2021/08/08 07:35:00;;;;;;;15.05;2.47;;;38.30;96.10;;;;;;4881724;29;20043;-77
2021/08/08 07:37:26;;;;;;;12.20;2.92;;;38.80;96.20;;;;;;4881872;29;20371;-76
2021/08/08 07:39:51;;;;;;;11.55;2.67;;;39.40;95.30;;;;;;4881633;29;20138;-76
2021/08/08 07:42:17;;;;;;;9.00;3.03;;;39.50;95.00;;;;;;4881706;29;20406;-76
2021/08/08 07:44:43;;;;;;;16.27;3.40;;;40.10;94.00;;;;;;4881558;29;20051;-76
2021/08/08 07:47:09;;;;;;;16.02;2.75;;;40.30;93.70;;;;;;4881767;29;20390;-76
2021/08/08 07:49:34;;;;;;;12.52;2.97;;;40.50;93.50;;;;;;4881473;29;20097;-77
2021/08/08 07:52:00;;;;;;;9.02;2.70;;;40.70;93.30;;;;;;4880837;29;20116;-77
2021/08/08 07:54:25;;;;;;;8.68;2.63;;;39.90;93.10;;;;;;4881388;29;20044;-76
2021/08/08 07:56:51;;;;;;;11.90;2.88;;;40.10;93.40;;;;;;4881415;29;20029;-76
2021/08/08 07:59:17;;;;;;;10.38;2.30;;;40.10;92.90;;;;;;4881549;29;20502;-79
2021/08/08 08:01:43;;;;;;;17.30;2.83;;;39.90;92.80;;;;;;4880991;29;20097;-77
2021/08/08 08:04:09;;;;;;;7.20;2.45;;;40.20;93.20;;;;;;4881606;29;20084;-76
2021/08/08 08:06:34;;;;;;;13.00;3.65;;;40.10;92.40;;;;;;4881416;29;20065;-77
2021/08/08 08:09:00;;;;;;;14.02;2.92;;;39.10;92.80;;;;;;4881150;29;20072;-77
2021/08/08 08:11:26;;;;;;;14.25;3.25;;;38.10;93.50;;;;;;4881118;29;20041;-75
2021/08/08 08:13:52;;;;;;;9.10;2.42;;;37.80;94.30;;;;;;4881267;29;20036;-78
2021/08/08 08:16:17;;;;;;;10.90;2.42;;;38.20;94.40;;;;;;4881257;29;20224;-76
2021/08/08 08:18:43;;;;;;;9.82;2.67;;;38.20;94.30;;;;;;4881033;29;20041;-77
2021/08/08 08:21:09;;;;;;;10.93;2.95;;;38.20;94.30;;;;;;4881290;29;20454;-78
2021/08/08 08:23:34;;;;;;;8.60;2.63;;;37.80;94.10;;;;;;4880815;29;20048;-76
2021/08/08 08:26:00;;;;;;;7.85;2.35;;;37.40;94.50;;;;;;4880818;29;20033;-75
2021/08/08 08:28:29;;;;;;;8.48;2.70;;;36.90;94.40;;;;;;4881126;29;20051;-77
2021/08/08 08:30:56;;;;;;;17.42;3.05;;;36.70;94.70;;;;;;4881097;29;20060;-77
2021/08/08 08:33:22;;;;;;;14.13;2.78;;;36.30;94.80;;;;;;4880900;29;20037;-75
2021/08/08 08:35:47;;;;;;;9.63;2.95;;;35.90;95.50;;;;;;4880881;29;20123;-77
2021/08/08 08:38:13;;;;;;;13.30;2.85;;;35.40;96.10;;;;;;4880579;29;20435;-78
2021/08/08 08:40:41;;;;;;;17.77;3.45;;;34.80;96.50;;;;;;4880834;29;20124;-78
2021/08/08 08:43:08;;;;;;;18.02;2.65;;;34.40;97.20;;;;;;4880561;29;20196;-77
2021/08/08 08:45:36;;;;;;;11.50;3.05;;;34.20;97.50;;;;;;4880791;29;20124;-76
2021/08/08 08:48:03;;;;;;;7.38;2.70;;;34.30;98.10;;;;;;4880749;29;20064;-77
2021/08/08 08:50:30;;;;;;;11.90;2.95;;;34.40;98.30;;;;;;4880515;29;20041;-76
2021/08/08 08:52:56;;;;;;;11.90;3.10;;;34.60;98.70;;;;;;4880694;29;20027;-77
2021/08/08 08:55:22;;;;;;;13.50;2.85;;;34.60;97.00;;;;;;4880606;29;20373;-76
2021/08/08 08:57:48;;;;;;;13.60;3.58;;;34.30;97.40;;;;;;4880667;29;20037;-77
2021/08/08 09:00:15;;;;;;;11.88;2.72;;;34.10;98.00;;;;;;4880386;29;20124;-75
2021/08/08 09:02:41;;;;;;;9.60;2.92;;;33.60;98.70;;;;;;4879681;29;20478;-76
2021/08/08 09:05:07;;;;;;;9.63;2.90;;;33.30;98.90;;;;;;4880330;29;20052;-77
2021/08/08 09:07:32;;;;;;;24.75;4.00;;;33.40;99.30;;;;;;4880227;29;20386;-76
2021/08/08 09:09:58;;;;;;;10.02;3.35;;;33.00;99.70;;;;;;4880200;29;20037;-77
2021/08/08 09:12:26;;;;;;;9.15;3.05;;;32.70;99.90;;;;;;4880099;29;20463;-76
2021/08/08 09:15:02;;;;;;;10.95;3.17;;;32.30;99.90;;;;;;4880289;29;20174;-76
2021/08/08 09:17:29;;;;;;;16.35;4.47;;;32.00;99.90;;;;;;4880129;29;20458;-78
2021/08/08 09:19:59;;;;;;;16.85;3.53;;;31.80;99.90;;;;;;4879895;29;20040;-76
2021/08/08 09:22:27;;;;;;;7.40;2.97;;;31.90;99.90;;;;;;4880206;29;20582;-77
2021/08/08 09:24:53;;;;;;;22.45;3.53;;;31.90;99.90;;;;;;4880196;29;20041;-76
2021/08/08 09:27:18;;;;;;;15.00;3.40;;;32.10;99.90;;;;;;4879722;29;20029;-75
2021/08/08 09:29:48;;;;;;;12.60;3.60;;;32.30;99.90;;;;;;4880062;29;20128;-76
2021/08/08 09:32:14;;;;;;;14.00;3.20;;;32.40;99.90;;;;;;4878763;29;20057;-77
2021/08/08 09:34:42;;;;;;;15.63;3.42;;;32.40;99.90;;;;;;4879944;29;20479;-76
2021/08/08 09:37:18;;;;;;;13.98;3.28;;;32.50;99.90;;;;;;4879917;29;20036;-77
2021/08/08 09:39:48;;;;;;;18.88;3.72;;;32.40;99.70;;;;;;4879817;29;20060;-76
2021/08/08 09:42:25;;;;;;;19.25;3.92;;;32.40;99.90;;;;;;4879945;29;20045;-76
2021/08/08 09:44:54;;;;;;;10.45;3.42;;;32.60;99.90;;;;;;4879755;29;20597;-76
2021/08/08 09:47:21;;;;;;;12.55;3.78;;;32.70;99.30;;;;;;4879895;29;20068;-76
2021/08/08 09:50:04;;;;;;;20.70;3.10;;;32.80;99.10;;;;;;4879703;29;20041;-77
2021/08/08 09:52:30;;;;;;;10.35;3.22;;;32.90;99.20;;;;;;4879594;29;20534;-78
2021/08/08 09:54:55;;;;;;;11.73;3.03;;;32.90;99.40;;;;;;4879587;29;20033;-79
2021/08/08 09:57:21;;;;;;;14.32;3.65;;;32.90;99.90;;;;;;4879573;29;20029;-79
2021/08/08 09:59:48;;;;;;;20.00;3.83;;;33.00;99.90;;;;;;4879561;29;20112;-78
2021/08/08 10:02:22;;;;;;;12.43;3.65;;;33.20;99.70;;;;;;4879301;29;20060;-77
2021/08/08 10:04:51;;;;;;;16.08;3.63;;;33.30;99.20;;;;;;4878050;29;20376;-78
2021/08/08 10:07:20;;;;;;;10.00;2.63;;;33.40;98.70;;;;;;4879858;29;20085;-79
2021/08/08 10:09:49;;;;;;;13.40;3.42;;;33.40;99.00;;;;;;4879773;29;20431;-79
2021/08/08 10:12:38;;;;;;;11.27;3.33;;;33.40;99.30;;;;;;4879696;29;20033;-77
2021/08/08 10:15:07;;;;;;;20.15;4.00;;;33.40;99.40;;;;;;4880534;29;20048;-82
2021/08/08 10:17:35;;;;;;;7.93;3.05;;;33.60;99.80;;;;;;4883404;29;20363;-79
2021/08/08 10:20:03;;;;;;;13.90;3.67;;;33.90;99.80;;;;;;4883299;29;20129;-78
2021/08/08 10:22:32;;;;;;;17.48;3.75;;;33.90;99.90;;;;;;4882622;29;20112;-79
2021/08/08 10:24:59;;;;;;;10.45;3.90;;;34.10;99.20;;;;;;4883033;29;20037;-77
2021/08/08 10:27:26;;;;;;;10.10;3.25;;;34.20;99.20;;;;;;4883134;29;20546;-76
2021/08/08 10:29:55;;;;;;;24.40;4.10;;;34.30;99.10;;;;;;4883017;29;20037;-77
2021/08/08 10:32:24;;;;;;;13.18;3.97;;;34.20;98.70;;;;;;4883040;29;20040;-78
2021/08/08 10:34:53;;;;;;;16.95;4.00;;;34.00;98.60;;;;;;4883108;29;20037;-75
2021/08/08 10:37:22;;;;;;;9.80;3.65;;;33.80;98.30;;;;;;4882518;29;20410;-76
2021/08/08 10:39:49;;;;;;;13.05;3.08;;;33.80;98.30;;;;;;4883100;29;20132;-80
2021/08/08 10:42:15;;;;;;;12.43;3.30;;;33.90;98.20;;;;;;4882919;29;20025;-77
2021/08/08 10:44:52;;;;;;;9.60;3.22;;;33.90;98.20;;;;;;4882750;29;20087;-76
2021/08/08 10:47:28;;;;;;;11.80;3.60;;;33.90;98.00;;;;;;4883000;29;20033;-76
2021/08/08 10:49:54;;;;;;;12.80;3.53;;;33.80;98.70;;;;;;4883043;29;20040;-76
2021/08/08 10:52:20;;;;;;;21.90;3.85;;;33.30;99.20;;;;;;4882819;29;20044;-81
2021/08/08 10:54:49;;;;;;;10.93;3.35;;;33.00;99.90;;;;;;4882186;29;20033;-77
2021/08/08 10:57:16;;;;;;;17.63;3.30;;;33.00;99.90;;;;;;4882780;29;20037;-75
2021/08/08 10:59:47;;;;;;;13.85;3.25;;;33.00;99.90;;;;;;4896609;29;20037;-76
2021/08/08 11:02:27;;;;;;;;;;;33.00;99.90;;;;;;4882684;29;20065;-77
2021/08/08 11:04:52;;;;;;;15.05;3.38;;;33.10;99.90;;;;;;4882498;29;19971;-77
2021/08/08 11:07:26;;;;;;;9.75;3.00;;;33.30;99.90;;;;;;4882314;29;20111;-79
2021/08/08 11:09:51;;;;;;;14.73;3.17;;;33.30;99.10;;;;;;4882407;29;20032;-80
2021/08/08 11:12:30;;;;;;;22.17;3.47;;;33.00;99.70;;;;;;4882536;29;20500;-79
2021/08/08 11:14:56;;;;;;;7.40;2.70;;;32.90;99.90;;;;;;4882159;29;20041;-80
2021/08/08 11:17:25;;;;;;;14.10;3.05;;;32.90;99.90;;;;;;4882615;29;20505;-78
2021/08/08 11:19:51;;;;;;;16.98;3.60;;;32.90;99.80;;;;;;4882131;29;20548;-79
2021/08/08 11:22:21;;;;;;;6.93;2.90;;;33.00;99.90;;;;;;4864915;29;20070;-78
2021/08/08 11:25:00;;;;;;;13.27;3.22;;;32.70;99.90;;;;;;4881816;29;20101;-78
2021/08/08 11:27:31;;;;;;;21.52;6.72;;;32.50;99.90;;;;;;4881637;29;20060;-80
2021/08/08 11:29:57;;;;;;;27.17;6.53;;;32.40;99.90;;;;;;4881877;29;20043;-79
2021/08/08 11:32:27;;;;;;;14.30;5.60;;;32.50;99.70;;;;;;4881887;29;20104;-78
2021/08/08 11:35:16;;;;;;;20.77;4.85;;;32.50;99.60;;;;;;4881987;29;20045;-78
2021/08/08 11:37:46;;;;;;;11.82;3.92;;;32.40;99.40;;;;;;4881695;29;20501;-79
2021/08/08 11:40:15;;;;;;;18.33;4.30;;;32.30;99.00;;;;;;4881994;29;20371;-80
2021/08/08 11:42:41;;;;;;;9.45;3.95;;;32.30;99.30;;;;;;4881771;29;20041;-79
2021/08/08 11:45:07;;;;;;;8.90;4.10;;;32.30;99.50;;;;;;4881703;29;20122;-78
2021/08/08 11:47:33;;;;;;;13.45;4.43;;;32.40;99.80;;;;;;4881864;29;20435;-79
2021/08/08 11:49:59;;;;;;;18.33;4.65;;;32.50;99.70;;;;;;4881551;29;20395;-78
2021/08/08 11:52:24;;;;;;;20.45;3.90;;;32.60;99.30;;;;;;4880943;29;20486;-78
2021/08/08 11:55:04;;;;;;;8.40;3.20;;;32.70;98.80;;;;;;4881597;29;20045;-76
2021/08/08 11:57:31;;;;;;;13.90;4.30;;;32.80;98.70;;;;;;4881516;29;20029;-78
2021/08/08 11:59:57;;;;;;;16.00;3.67;;;32.80;98.70;;;;;;4881545;29;20037;-78
2021/08/08 12:02:25;;;;;;;8.05;3.45;;;32.90;98.10;;;;;;4881160;29;20114;-78
2021/08/08 12:04:53;;;;;;;17.55;4.53;;;32.70;98.40;;;;;;4881529;29;20100;-78
2021/08/08 12:07:21;;;;;;;8.88;3.88;;;32.60;99.30;;;;;;4881273;29;20037;-78
2021/08/08 12:09:49;;;;;;;25.33;4.18;;;32.70;99.10;;;;;;4881507;29;20454;-79
2021/08/08 12:12:15;;;;;;;8.30;3.45;;;32.70;98.70;;;;;;4881491;29;20043;-78
2021/08/08 12:14:44;;;;;;;8.82;3.20;;;32.80;97.70;;;;;;4881333;29;20037;-78
2021/08/08 12:17:18;;;;;;;13.07;3.50;;;32.80;97.60;;;;;;4881022;29;20040;-77
2021/08/08 12:19:48;;;;;;;12.05;3.13;;;32.70;98.00;;;;;;4881387;29;20033;-79
2021/08/08 12:22:16;;;;;;;20.48;3.53;;;32.80;98.40;;;;;;4881417;29;20505;-79
2021/08/08 12:24:46;;;;;;;10.00;3.08;;;33.00;97.50;;;;;;4895481;29;20376;-78
2021/08/08 12:27:28;;;;;;;15.55;3.35;;;33.00;97.80;;;;;;4881217;29;20032;-78
2021/08/08 12:29:57;;;;;;;7.72;3.03;;;33.10;98.30;;;;;;4881380;29;20044;-78
2021/08/08 12:32:23;;;;;;;10.55;3.40;;;33.10;99.00;;;;;;4881200;29;20048;-79
2021/08/08 12:34:50;;;;;;;14.73;2.97;;;33.10;99.80;;;;;;4880981;29;20037;-77
2021/08/08 12:37:21;;;;;;;8.60;3.45;;;33.00;99.90;;;;;;4880830;29;20033;-78
2021/08/08 12:39:47;;;;;;;23.15;4.60;;;33.10;99.90;;;;;;4881068;29;20037;-78